createdAt,value
2023-03-10T00:01:15.260Z,14.20
2023-03-10T00:03:42.949Z,15.40
2023-03-10T00:06:12.432Z,14.73
2023-03-10T00:08:41.051Z,15.25
2023-03-10T00:11:08.767Z,14.15
2023-03-10T00:13:37.863Z,14.93
2023-03-10T00:16:06.431Z,16.30
2023-03-10T00:18:34.075Z,14.38
2023-03-10T00:21:01.765Z,14.93
2023-03-10T00:23:29.309Z,14.52
2023-03-10T00:25:58.081Z,15.35
2023-03-10T00:28:27.045Z,15.27
2023-03-10T00:31:00.994Z,15.65
2023-03-10T00:33:28.697Z,16.58
2023-03-10T00:36:04.296Z,16.55
2023-03-10T00:38:32.113Z,15.20
2023-03-10T00:41:00.867Z,16.00
2023-03-10T00:43:29.230Z,15.88
2023-03-10T00:45:58.703Z,13.82
2023-03-10T00:48:26.264Z,15.65
2023-03-10T00:50:54.227Z,16.58
2023-03-10T00:53:21.820Z,15.60
2023-03-10T00:56:00.239Z,16.02
2023-03-10T00:58:28.455Z,16.65
2023-03-10T01:00:56.285Z,16.00
2023-03-10T01:03:26.425Z,14.13
2023-03-10T01:05:54.760Z,15.55
2023-03-10T01:08:22.944Z,15.13
2023-03-10T01:10:51.142Z,15.18
2023-03-10T01:13:19.550Z,15.05
2023-03-10T01:15:47.937Z,14.57
2023-03-10T01:18:16.376Z,14.35
2023-03-10T01:20:45.661Z,14.60
2023-03-10T01:23:15.948Z,14.07
2023-03-10T01:25:43.974Z,14.20
2023-03-10T01:28:12.000Z,15.32
2023-03-10T01:30:40.390Z,14.45
2023-03-10T01:33:09.393Z,12.98
2023-03-10T01:35:37.504Z,13.77
2023-03-10T01:38:06.938Z,14.80
2023-03-10T01:40:35.272Z,14.07
2023-03-10T01:43:28.114Z,13.10
2023-03-10T01:46:35.092Z,13.07
2023-03-10T01:49:19.806Z,13.70
2023-03-10T01:51:51.449Z,13.32
2023-03-10T01:54:25.163Z,14.65
2023-03-10T01:56:55.009Z,14.38
2023-03-10T01:59:24.039Z,14.43
2023-03-10T02:01:52.644Z,15.63
2023-03-10T02:04:27.147Z,14.88
2023-03-10T02:06:55.607Z,15.23
2023-03-10T02:09:26.042Z,14.98
2023-03-10T02:11:54.860Z,16.42
2023-03-10T02:14:22.414Z,14.07
2023-03-10T02:16:50.863Z,15.70
2023-03-10T02:19:38.324Z,14.73
2023-03-10T02:22:09.098Z,15.18
2023-03-10T02:24:47.920Z,14.38
2023-03-10T02:27:19.629Z,14.95
2023-03-10T02:29:59.239Z,15.40
2023-03-10T02:32:33.835Z,15.10
2023-03-10T02:35:01.847Z,15.13
2023-03-10T02:37:31.442Z,15.40
2023-03-10T02:39:59.683Z,14.15
2023-03-10T02:42:33.354Z,15.35
2023-03-10T02:45:01.743Z,14.38
2023-03-10T02:47:29.299Z,15.43
2023-03-10T02:49:56.949Z,15.05
2023-03-10T02:52:30.601Z,15.90
2023-03-10T02:54:58.632Z,16.00
2023-03-10T02:57:29.465Z,15.70
2023-03-10T02:59:57.091Z,17.30
2023-03-10T03:02:24.641Z,15.20
2023-03-10T03:04:52.164Z,16.13
2023-03-10T03:07:19.795Z,15.73
2023-03-10T03:09:47.388Z,15.60
2023-03-10T03:12:15.104Z,14.88
2023-03-10T03:14:43.990Z,15.98
2023-03-10T03:17:11.550Z,15.20
2023-03-10T03:19:39.375Z,14.95
2023-03-10T03:22:07.178Z,16.80
2023-03-10T03:24:34.944Z,15.02
2023-03-10T03:27:03.471Z,14.20
2023-03-10T03:29:31.038Z,13.85
2023-03-10T03:32:00.257Z,15.48
2023-03-10T03:34:31.341Z,15.80
2023-03-10T03:37:02.354Z,14.48
2023-03-10T03:39:34.729Z,14.38
2023-03-10T03:42:05.737Z,14.93
2023-03-10T03:44:42.648Z,15.23
2023-03-10T03:47:12.677Z,17.58
2023-03-10T03:49:40.451Z,16.38
2023-03-10T03:52:08.746Z,16.42
2023-03-10T03:54:36.692Z,15.30
2023-03-10T03:57:04.747Z,17.35
2023-03-10T03:59:32.376Z,18.58
2023-03-10T04:01:59.968Z,18.10
2023-03-10T04:04:29.071Z,17.20
2023-03-10T04:06:57.110Z,17.25
2023-03-10T04:09:24.664Z,16.58
2023-03-10T04:11:52.508Z,16.92
2023-03-10T04:14:21.494Z,15.93
2023-03-10T04:16:49.193Z,15.63
2023-03-10T04:19:16.875Z,17.85
2023-03-10T04:21:49.421Z,15.25
2023-03-10T04:24:17.705Z,17.55
2023-03-10T04:26:46.125Z,17.55
2023-03-10T04:29:13.744Z,18.40
2023-03-10T04:31:48.320Z,18.55
2023-03-10T04:34:18.565Z,18.45
2023-03-10T04:36:46.447Z,17.45
2023-03-10T04:39:15.961Z,18.73
2023-03-10T04:41:43.730Z,16.58
2023-03-10T04:44:24.431Z,17.67
2023-03-10T04:46:58.108Z,17.77
2023-03-10T04:49:25.799Z,16.02
2023-03-10T04:51:53.429Z,17.33
2023-03-10T04:54:22.694Z,17.17
2023-03-10T04:56:50.452Z,19.10
2023-03-10T04:59:20.084Z,18.40
2023-03-10T05:01:49.227Z,19.85
2023-03-10T05:04:16.959Z,18.92
2023-03-10T05:06:44.735Z,17.92
2023-03-10T05:09:21.935Z,19.58
2023-03-10T05:11:50.080Z,18.55
2023-03-10T05:14:18.718Z,18.80
2023-03-10T05:16:48.522Z,19.35
2023-03-10T05:19:16.301Z,17.83
2023-03-10T05:21:43.998Z,19.55
2023-03-10T05:24:11.652Z,18.00
2023-03-10T05:26:41.653Z,18.20
2023-03-10T05:29:09.227Z,19.08
2023-03-10T05:31:51.048Z,19.55
2023-03-10T05:34:26.728Z,18.75
2023-03-10T05:36:57.000Z,23.77
2023-03-10T05:39:25.117Z,17.90
2023-03-10T05:41:57.179Z,18.73
2023-03-10T05:44:28.527Z,18.52
2023-03-10T05:46:56.191Z,19.05
2023-03-10T05:49:24.010Z,18.63
2023-03-10T05:51:52.832Z,18.85
2023-03-10T05:54:20.766Z,18.60
2023-03-10T05:56:48.570Z,19.88
2023-03-10T05:59:17.859Z,21.20
2023-03-10T06:01:45.524Z,18.88
2023-03-10T06:04:13.199Z,20.17
2023-03-10T06:06:40.744Z,20.90
2023-03-10T06:09:08.315Z,20.77
2023-03-10T06:11:36.243Z,21.77
2023-03-10T06:14:04.308Z,21.30
2023-03-10T06:16:33.227Z,20.30
2023-03-10T06:19:00.775Z,21.63
2023-03-10T06:21:29.390Z,20.42
2023-03-10T06:23:56.925Z,21.02
2023-03-10T06:26:24.479Z,22.15
2023-03-10T06:28:52.029Z,22.48
2023-03-10T06:31:22.078Z,20.77
2023-03-10T06:33:51.356Z,19.58
2023-03-10T06:36:19.032Z,21.33
2023-03-10T06:38:46.615Z,19.38
2023-03-10T06:41:14.320Z,20.42
2023-03-10T06:43:42.092Z,20.20
2023-03-10T06:46:11.213Z,19.58
2023-03-10T06:48:40.275Z,19.25
2023-03-10T06:51:11.726Z,19.95
2023-03-10T06:53:39.447Z,19.30
2023-03-10T06:56:09.404Z,20.80
2023-03-10T06:58:38.144Z,17.70
2023-03-10T07:01:07.440Z,19.45
2023-03-10T07:03:35.424Z,19.50
2023-03-10T07:06:03.219Z,19.58
2023-03-10T07:08:32.135Z,19.83
2023-03-10T07:10:59.703Z,18.58
2023-03-10T07:13:27.255Z,20.70
2023-03-10T07:15:54.900Z,18.25
2023-03-10T07:18:22.444Z,19.63
2023-03-10T07:20:53.014Z,18.50
2023-03-10T07:23:21.052Z,17.85
2023-03-10T07:25:52.676Z,18.02
2023-03-10T07:28:20.342Z,18.58
2023-03-10T07:30:49.164Z,19.15
2023-03-10T07:33:17.145Z,20.33
2023-03-10T07:35:45.800Z,18.88
2023-03-10T07:38:13.408Z,20.67
2023-03-10T07:40:41.138Z,18.70
2023-03-10T07:43:10.505Z,19.08
2023-03-10T07:45:39.042Z,20.30
2023-03-10T07:48:07.136Z,19.35
2023-03-10T07:50:34.772Z,18.95
2023-03-10T07:53:02.316Z,18.80
2023-03-10T07:55:29.902Z,18.83
2023-03-10T07:58:00.240Z,19.52
2023-03-10T08:00:29.400Z,19.25
2023-03-10T08:02:56.991Z,18.35
2023-03-10T08:05:24.604Z,19.70
2023-03-10T08:07:52.354Z,19.20
2023-03-10T08:10:20.059Z,20.15
2023-03-10T08:12:47.691Z,19.77
2023-03-10T08:15:15.238Z,18.77
2023-03-10T08:17:44.131Z,19.40
2023-03-10T08:20:12.598Z,19.80
2023-03-10T08:22:40.337Z,18.23
2023-03-10T08:25:08.602Z,20.77
2023-03-10T08:27:36.634Z,20.10
2023-03-10T08:30:04.544Z,20.95
2023-03-10T08:32:34.179Z,19.40
2023-03-10T08:35:05.591Z,19.33
2023-03-10T08:37:33.150Z,20.80
2023-03-10T08:40:01.035Z,18.27
2023-03-10T08:42:28.631Z,18.63
2023-03-10T08:44:56.760Z,18.75
2023-03-10T08:47:26.408Z,19.10
2023-03-10T08:49:55.667Z,20.88
2023-03-10T08:52:24.766Z,19.23
2023-03-10T08:54:52.348Z,20.10
2023-03-10T08:57:19.984Z,20.88
2023-03-10T08:59:47.540Z,21.05
2023-03-10T09:02:15.487Z,20.90
2023-03-10T09:04:43.093Z,20.23
2023-03-10T09:07:11.020Z,20.80
2023-03-10T09:09:40.110Z,20.13
2023-03-10T09:12:08.910Z,21.13
2023-03-10T09:14:36.473Z,20.20
2023-03-10T09:17:04.784Z,20.92
2023-03-10T09:19:32.370Z,19.00
2023-03-10T09:22:00.121Z,21.25
2023-03-10T09:24:27.857Z,19.65
2023-03-10T09:26:56.876Z,19.95
2023-03-10T09:29:41.799Z,18.92
2023-03-10T09:32:10.620Z,19.63
2023-03-10T09:34:38.356Z,20.17
2023-03-10T09:37:08.410Z,20.35
2023-03-10T09:39:36.185Z,20.60
2023-03-10T09:42:37.516Z,19.08
2023-03-10T09:45:19.926Z,18.98
2023-03-10T09:47:56.320Z,20.42
2023-03-10T09:50:32.235Z,19.95
2023-03-10T09:53:13.312Z,19.73
2023-03-10T09:55:47.717Z,19.35
2023-03-10T09:58:27.787Z,21.13
2023-03-10T10:00:55.671Z,19.65
2023-03-10T10:03:25.162Z,20.25
2023-03-10T10:05:55.973Z,19.92
2023-03-10T10:08:29.016Z,20.75
2023-03-10T10:10:58.883Z,19.30
2023-03-10T10:13:30.532Z,20.02
2023-03-10T10:16:21.370Z,18.95
2023-03-10T10:19:00.279Z,19.65
2023-03-10T10:21:42.351Z,20.13
2023-03-10T10:24:10.692Z,21.42
2023-03-10T10:26:38.259Z,21.58
2023-03-10T10:29:16.580Z,20.70
2023-03-10T10:32:01.998Z,20.45
2023-03-10T10:34:31.985Z,21.40
2023-03-10T10:37:38.790Z,22.23
2023-03-10T10:40:24.038Z,23.50
2023-03-10T10:42:54.627Z,22.88
2023-03-10T10:45:29.973Z,21.42
2023-03-10T10:47:57.898Z,21.52
2023-03-10T10:50:27.904Z,23.40
2023-03-10T10:53:17.707Z,22.67
2023-03-10T10:55:46.746Z,23.08
2023-03-10T10:58:28.231Z,23.00
2023-03-10T11:00:59.090Z,23.83
2023-03-10T11:03:31.274Z,23.02
2023-03-10T11:06:00.912Z,23.40
2023-03-10T11:08:34.924Z,23.08
2023-03-10T11:11:12.146Z,23.98
2023-03-10T11:13:52.910Z,24.23
2023-03-10T11:16:26.809Z,24.08
2023-03-10T11:18:59.094Z,26.67
2023-03-10T11:21:29.147Z,24.63
2023-03-10T11:24:06.030Z,24.98
2023-03-10T11:26:45.050Z,24.65
2023-03-10T11:29:24.865Z,24.77
2023-03-10T11:32:05.725Z,26.23
2023-03-10T11:34:37.290Z,24.15
2023-03-10T11:37:14.327Z,23.45
2023-03-10T11:39:49.849Z,22.25
2023-03-10T11:42:26.199Z,25.08
2023-03-10T11:45:04.638Z,23.58
2023-03-10T11:47:48.249Z,24.75
2023-03-10T11:50:27.889Z,25.33
2023-03-10T11:53:01.385Z,23.02
2023-03-10T11:55:30.968Z,23.85
2023-03-10T11:58:01.959Z,22.50
2023-03-10T12:00:34.017Z,25.77
2023-03-10T12:03:13.629Z,25.08
2023-03-10T12:05:47.472Z,24.48
2023-03-10T12:08:17.726Z,22.80
2023-03-10T12:10:45.638Z,24.90
2023-03-10T12:13:23.287Z,24.08
2023-03-10T12:15:53.560Z,26.45
2023-03-10T12:18:24.998Z,25.02
2023-03-10T12:21:22.531Z,24.90
2023-03-10T12:23:51.973Z,23.73
2023-03-10T12:26:55.361Z,24.77
2023-03-10T12:29:43.198Z,24.50
2023-03-10T12:32:40.219Z,23.65
2023-03-10T12:35:50.661Z,24.35
2023-03-10T12:38:31.150Z,23.08
2023-03-10T12:41:00.530Z,24.67
2023-03-10T12:43:56.078Z,22.45
2023-03-10T12:46:30.264Z,24.25
2023-03-10T12:49:11.966Z,22.98
2023-03-10T12:51:43.800Z,23.30
2023-03-10T12:54:32.035Z,23.15
2023-03-10T12:57:05.522Z,22.25
2023-03-10T12:59:40.632Z,25.25
2023-03-10T13:02:23.499Z,22.33
2023-03-10T13:04:52.873Z,21.92
2023-03-10T13:07:21.801Z,20.75
2023-03-10T13:09:50.503Z,24.05
2023-03-10T13:12:22.179Z,21.15
2023-03-10T13:14:55.568Z,21.65
2023-03-10T13:17:25.985Z,22.05
2023-03-10T13:20:05.333Z,21.88
2023-03-10T13:22:34.608Z,21.75
2023-03-10T13:25:04.244Z,21.33
2023-03-10T13:27:34.114Z,22.05
2023-03-10T13:30:04.232Z,20.67
2023-03-10T13:32:33.426Z,22.33
2023-03-10T13:35:15.491Z,21.27
2023-03-10T13:37:44.430Z,20.48
2023-03-10T13:40:17.615Z,20.52
2023-03-10T13:42:47.994Z,22.52
2023-03-10T13:45:23.008Z,20.17
2023-03-10T13:47:52.004Z,20.27
2023-03-10T13:50:19.801Z,19.10
2023-03-10T13:53:00.020Z,20.20
2023-03-10T13:55:29.044Z,19.88
2023-03-10T13:57:56.960Z,20.23
2023-03-10T14:00:26.897Z,20.20
2023-03-10T14:02:54.835Z,18.90
2023-03-10T14:05:39.715Z,19.05
2023-03-10T14:08:19.337Z,19.48
2023-03-10T14:10:46.849Z,19.77
2023-03-10T14:13:40.009Z,18.50
2023-03-10T14:16:08.209Z,18.80
2023-03-10T14:18:37.227Z,19.25
2023-03-10T14:21:25.775Z,18.92
2023-03-10T14:23:57.154Z,18.90
2023-03-10T14:26:25.003Z,18.13
2023-03-10T14:28:52.509Z,18.73
2023-03-10T14:31:23.006Z,18.38
2023-03-10T14:33:50.872Z,18.88
2023-03-10T14:36:18.519Z,17.85
2023-03-10T14:38:46.184Z,18.52
2023-03-10T14:41:16.606Z,17.48
2023-03-10T14:43:44.375Z,16.88
2023-03-10T14:46:13.457Z,16.77
2023-03-10T14:48:42.114Z,17.90
2023-03-10T14:51:19.979Z,17.55
2023-03-10T14:53:53.320Z,17.45
2023-03-10T14:56:23.400Z,17.38
2023-03-10T14:58:53.556Z,17.65
2023-03-10T15:01:22.298Z,17.38
2023-03-10T15:03:50.039Z,17.40
2023-03-10T15:06:20.808Z,17.27
2023-03-10T15:08:48.551Z,18.05
2023-03-10T15:11:21.510Z,17.85
2023-03-10T15:13:59.556Z,17.75
2023-03-10T15:16:27.150Z,16.65
2023-03-10T15:18:54.663Z,17.13
2023-03-10T15:21:22.327Z,16.48
2023-03-10T15:23:49.890Z,17.25
2023-03-10T15:26:17.449Z,16.63
2023-03-10T15:28:45.005Z,16.83
2023-03-10T15:31:13.964Z,16.88
2023-03-10T15:33:41.604Z,16.95
2023-03-10T15:36:10.377Z,16.40
2023-03-10T15:38:37.934Z,17.60
2023-03-10T15:41:05.692Z,16.95
2023-03-10T15:43:33.235Z,15.60
2023-03-10T15:46:06.710Z,15.20
2023-03-10T15:48:35.755Z,18.05
2023-03-10T15:51:09.864Z,17.45
2023-03-10T15:53:37.982Z,17.05
2023-03-10T15:56:06.975Z,16.92
2023-03-10T15:58:34.889Z,15.90
2023-03-10T16:01:07.705Z,16.27
2023-03-10T16:03:37.172Z,14.73
2023-03-10T16:06:05.521Z,15.60
2023-03-10T16:08:37.238Z,16.13
2023-03-10T16:11:06.054Z,15.50
2023-03-10T16:13:33.705Z,15.15
2023-03-10T16:16:05.762Z,16.33
2023-03-10T16:18:33.392Z,15.13
2023-03-10T16:21:04.033Z,15.18
2023-03-10T16:23:33.213Z,13.68
2023-03-10T16:26:05.997Z,14.25
2023-03-10T16:28:33.703Z,14.27
2023-03-10T16:31:02.409Z,14.82
2023-03-10T16:33:30.275Z,14.10
2023-03-10T16:35:59.462Z,14.65
2023-03-10T16:38:28.858Z,15.05
2023-03-10T16:40:57.967Z,15.93
2023-03-10T16:43:28.714Z,15.40
2023-03-10T16:46:07.426Z,17.25
2023-03-10T16:48:36.912Z,15.02
2023-03-10T16:51:19.000Z,14.80
2023-03-10T16:53:48.236Z,15.80
2023-03-10T16:56:16.092Z,15.65
2023-03-10T16:58:43.950Z,15.73
2023-03-10T17:01:11.601Z,18.00
2023-03-10T17:03:40.410Z,16.35
2023-03-10T17:06:09.727Z,15.68
2023-03-10T17:08:38.006Z,14.77
2023-03-10T17:11:08.423Z,16.83
2023-03-10T17:13:36.661Z,16.70
2023-03-10T17:16:12.359Z,15.32
2023-03-10T17:18:39.972Z,17.52
2023-03-10T17:21:15.409Z,17.35
2023-03-10T17:23:43.237Z,15.73
2023-03-10T17:26:13.691Z,16.55
2023-03-10T17:28:42.598Z,17.05
2023-03-10T17:31:12.412Z,17.00
2023-03-10T17:33:41.334Z,16.50
2023-03-10T17:36:12.519Z,16.20
2023-03-10T17:38:40.789Z,16.08
2023-03-10T17:41:10.933Z,17.33
2023-03-10T17:43:40.110Z,17.10
2023-03-10T17:46:09.407Z,16.50
2023-03-10T17:48:37.111Z,18.80
2023-03-10T17:51:06.858Z,18.75
2023-03-10T17:53:34.614Z,17.48
2023-03-10T17:56:04.909Z,18.70
2023-03-10T17:58:32.503Z,18.10
2023-03-10T18:01:07.860Z,20.05
2023-03-10T18:03:36.014Z,19.85
2023-03-10T18:06:04.629Z,21.50
2023-03-10T18:08:32.215Z,21.65
2023-03-10T18:11:01.263Z,18.48
2023-03-10T18:13:28.949Z,17.70
2023-03-10T18:15:56.804Z,20.17
2023-03-10T18:18:26.262Z,21.38
2023-03-10T18:20:53.887Z,21.80
2023-03-10T18:23:22.991Z,21.60
2023-03-10T18:25:51.595Z,20.52
2023-03-10T18:28:20.810Z,19.63
2023-03-10T18:30:53.025Z,19.65
2023-03-10T18:33:20.752Z,18.48
2023-03-10T18:35:49.668Z,21.95
2023-03-10T18:38:17.914Z,22.05
2023-03-10T18:40:45.582Z,18.85
2023-03-10T18:43:13.126Z,19.38
2023-03-10T18:45:43.817Z,19.42
2023-03-10T18:48:11.483Z,20.30
2023-03-10T18:50:39.162Z,17.73
2023-03-10T18:53:08.126Z,18.58
2023-03-10T18:55:35.702Z,18.05
2023-03-10T18:58:03.331Z,19.17
2023-03-10T19:00:30.864Z,20.70
2023-03-10T19:02:58.522Z,18.92
2023-03-10T19:05:26.433Z,18.42
2023-03-10T19:07:54.020Z,19.40
2023-03-10T19:10:23.197Z,20.67
2023-03-10T19:12:50.844Z,18.77
2023-03-10T19:15:18.670Z,19.00
2023-03-10T19:17:46.216Z,18.48
2023-03-10T19:20:16.121Z,19.58
2023-03-10T19:22:45.258Z,19.80
2023-03-10T19:25:12.935Z,18.63
2023-03-10T19:27:41.811Z,20.42
2023-03-10T19:30:12.432Z,20.10
2023-03-10T19:32:40.462Z,21.13
2023-03-10T19:35:09.466Z,19.17
2023-03-10T19:37:37.700Z,20.33
2023-03-10T19:40:08.531Z,19.75
2023-03-10T19:42:38.386Z,19.42
2023-03-10T19:45:08.603Z,19.65
2023-03-10T19:47:36.180Z,21.38
2023-03-10T19:50:03.902Z,21.30
2023-03-10T19:52:31.409Z,19.83
2023-03-10T19:54:59.020Z,18.90
2023-03-10T19:57:26.770Z,19.63
2023-03-10T19:59:54.298Z,20.63
2023-03-10T20:02:24.594Z,18.25
2023-03-10T20:04:52.115Z,18.77
2023-03-10T20:07:19.631Z,17.98
2023-03-10T20:09:49.369Z,18.50
2023-03-10T20:12:16.929Z,18.30
2023-03-10T20:14:44.538Z,17.88
2023-03-10T20:17:12.101Z,18.05
2023-03-10T20:19:43.372Z,16.08
2023-03-10T20:22:10.888Z,15.63
2023-03-10T20:24:38.502Z,17.55
2023-03-10T20:27:06.168Z,17.85
2023-03-10T20:29:33.763Z,16.70
2023-03-10T20:32:01.376Z,18.20
2023-03-10T20:34:29.211Z,16.05
2023-03-10T20:36:58.511Z,15.45
2023-03-10T20:39:26.251Z,17.33
2023-03-10T20:41:53.794Z,16.08
2023-03-10T20:44:21.625Z,15.60
2023-03-10T20:46:49.193Z,16.55
2023-03-10T20:49:16.916Z,16.75
2023-03-10T20:51:44.374Z,15.60
2023-03-10T20:54:13.291Z,16.50
2023-03-10T20:56:40.923Z,14.82
2023-03-10T20:59:08.533Z,15.15
2023-03-10T21:01:39.658Z,13.73
2023-03-10T21:04:07.401Z,14.60
2023-03-10T21:06:35.842Z,15.43
2023-03-10T21:09:05.790Z,14.50
2023-03-10T21:11:35.729Z,12.77
2023-03-10T21:14:03.471Z,14.70
2023-03-10T21:16:31.130Z,13.65
2023-03-10T21:18:58.767Z,12.52
2023-03-10T21:21:26.324Z,15.35
2023-03-10T21:23:53.848Z,14.52
2023-03-10T21:26:22.205Z,13.77
2023-03-10T21:28:51.059Z,12.85
2023-03-10T21:31:18.722Z,14.75
2023-03-10T21:33:46.233Z,14.52
2023-03-10T21:36:15.357Z,13.57
2023-03-10T21:38:43.042Z,14.75
2023-03-10T21:41:11.648Z,16.08
2023-03-10T21:43:39.177Z,16.05
2023-03-10T21:46:08.036Z,17.30
2023-03-10T21:48:35.690Z,17.38
2023-03-10T21:51:03.255Z,15.48
2023-03-10T21:53:31.372Z,13.82
2023-03-10T21:56:00.516Z,13.50
2023-03-10T21:58:28.117Z,14.82
2023-03-10T22:01:02.191Z,15.32
2023-03-10T22:03:31.127Z,15.45
2023-03-10T22:05:58.867Z,14.52
2023-03-10T22:08:26.351Z,14.40
2023-03-10T22:10:53.966Z,14.25
2023-03-10T22:13:21.531Z,14.43
2023-03-10T22:15:49.213Z,14.63
2023-03-10T22:18:16.824Z,15.73
2023-03-10T22:20:45.737Z,15.43
2023-03-10T22:23:13.619Z,14.77
2023-03-10T22:25:41.171Z,15.27
2023-03-10T22:28:09.036Z,14.95
2023-03-10T22:30:37.172Z,15.38
2023-03-10T22:33:06.794Z,14.98
2023-03-10T22:35:34.447Z,14.90
2023-03-10T22:38:03.438Z,15.35
2023-03-10T22:40:31.252Z,14.95
2023-03-10T22:42:59.430Z,14.52
2023-03-10T22:45:28.513Z,15.23
2023-03-10T22:47:58.272Z,14.43
2023-03-10T22:50:28.060Z,16.77
2023-03-10T22:52:55.594Z,13.85
2023-03-10T22:55:25.995Z,15.23
2023-03-10T22:57:56.594Z,15.02
2023-03-10T23:00:24.398Z,15.82
2023-03-10T23:02:53.716Z,14.63
2023-03-10T23:05:22.110Z,14.05
2023-03-10T23:07:50.156Z,15.93
2023-03-10T23:10:21.930Z,15.35
2023-03-10T23:12:51.660Z,15.38
2023-03-10T23:15:25.512Z,15.48
2023-03-10T23:17:53.668Z,14.93
2023-03-10T23:20:23.939Z,14.15
2023-03-10T23:22:51.484Z,14.75
2023-03-10T23:25:20.784Z,15.50
2023-03-10T23:27:48.566Z,16.10
2023-03-10T23:30:17.875Z,15.40
2023-03-10T23:32:47.625Z,15.88
2023-03-10T23:35:17.011Z,16.95
2023-03-10T23:37:44.604Z,16.77
2023-03-10T23:40:14.660Z,15.52
2023-03-10T23:42:42.632Z,15.77
2023-03-10T23:45:12.602Z,15.68
2023-03-10T23:47:42.322Z,16.90
2023-03-10T23:50:14.664Z,17.73
2023-03-10T23:52:42.183Z,16.52
2023-03-10T23:55:13.788Z,17.15
2023-03-10T23:57:41.385Z,17.45
